createdAt,value
2022-08-16T00:01:11.703Z,42.00
2022-08-16T00:03:38.878Z,42.11
2022-08-16T00:06:07.813Z,41.76
2022-08-16T00:08:37.658Z,41.80
2022-08-16T00:11:15.227Z,41.89
2022-08-16T00:13:54.276Z,42.14
2022-08-16T00:17:01.502Z,42.08
2022-08-16T00:19:22.776Z,42.11
2022-08-16T00:21:53.231Z,42.19
2022-08-16T00:24:30.891Z,42.14
2022-08-16T00:26:58.990Z,41.82
2022-08-16T00:29:25.593Z,41.92
2022-08-16T00:32:00.066Z,42.09
2022-08-16T00:34:43.122Z,42.27
2022-08-16T00:37:18.510Z,42.12
2022-08-16T00:39:48.145Z,41.97
2022-08-16T00:42:30.712Z,41.99
2022-08-16T00:45:08.186Z,41.93
2022-08-16T00:47:40.207Z,42.21
2022-08-16T00:50:11.685Z,42.18
2022-08-16T00:52:50.624Z,42.28
2022-08-16T00:55:24.373Z,42.08
2022-08-16T00:58:00.096Z,42.06
2022-08-16T01:00:31.432Z,41.99
2022-08-16T01:03:01.074Z,42.12
2022-08-16T01:05:29.170Z,42.11
2022-08-16T01:07:57.381Z,41.86
2022-08-16T01:10:32.416Z,42.14
2022-08-16T01:13:15.200Z,42.33
2022-08-16T01:15:48.000Z,42.26
2022-08-16T01:18:40.760Z,41.97
2022-08-16T01:21:34.963Z,42.34
2022-08-16T01:24:53.577Z,42.32
2022-08-16T01:27:11.129Z,42.41
2022-08-16T01:29:58.554Z,42.19
2022-08-16T01:32:31.950Z,42.09
2022-08-16T01:35:00.904Z,42.48
2022-08-16T01:37:27.632Z,41.99
2022-08-16T01:40:07.167Z,42.34
2022-08-16T01:42:34.388Z,42.25
2022-08-16T01:45:01.136Z,42.25
2022-08-16T01:47:28.185Z,42.44
2022-08-16T01:50:42.741Z,42.34
2022-08-16T01:52:46.519Z,42.09
2022-08-16T01:55:13.495Z,42.38
2022-08-16T01:57:41.402Z,41.99
2022-08-16T02:00:21.025Z,42.09
2022-08-16T02:02:56.593Z,42.38
2022-08-16T02:05:23.650Z,42.25
2022-08-16T02:07:51.981Z,42.35
2022-08-16T02:10:19.513Z,42.02
2022-08-16T02:12:51.357Z,42.09
2022-08-16T02:15:26.039Z,42.27
2022-08-16T02:17:58.652Z,42.14
2022-08-16T02:20:28.047Z,42.44
2022-08-16T02:22:56.631Z,42.24
2022-08-16T02:25:23.797Z,42.41
2022-08-16T02:27:51.599Z,42.17
2022-08-16T02:30:36.879Z,42.35
2022-08-16T02:33:11.008Z,42.32
2022-08-16T02:35:54.409Z,42.06
2022-08-16T02:38:24.703Z,42.34
2022-08-16T02:40:54.572Z,42.03
2022-08-16T02:43:21.889Z,42.32
2022-08-16T02:45:54.472Z,42.60
2022-08-16T02:48:30.661Z,42.14
2022-08-16T02:51:11.031Z,42.36
2022-08-16T02:53:43.055Z,41.61
2022-08-16T02:56:12.317Z,41.96
2022-08-16T02:58:41.859Z,41.70
2022-08-16T03:01:17.027Z,42.06
2022-08-16T03:04:39.498Z,42.24
2022-08-16T03:06:43.189Z,42.00
2022-08-16T03:09:13.877Z,42.28
2022-08-16T03:11:42.331Z,42.24
2022-08-16T03:14:09.011Z,42.29
2022-08-16T03:16:42.230Z,42.23
2022-08-16T03:19:25.390Z,42.40
2022-08-16T03:21:52.003Z,42.77
2022-08-16T03:24:28.727Z,42.69
2022-08-16T03:27:00.371Z,42.74
2022-08-16T03:29:33.752Z,42.70
2022-08-16T03:32:02.299Z,42.79
2022-08-16T03:34:30.708Z,42.70
2022-08-16T03:36:58.036Z,42.69
2022-08-16T03:39:24.894Z,43.02
2022-08-16T03:41:59.996Z,43.07
2022-08-16T03:44:40.690Z,43.06
2022-08-16T03:47:13.543Z,42.67
2022-08-16T03:49:51.241Z,42.65
2022-08-16T03:52:20.138Z,42.58
2022-08-16T03:54:57.602Z,42.76
2022-08-16T03:57:31.413Z,42.63
2022-08-16T03:59:58.345Z,42.65
2022-08-16T04:02:31.537Z,42.75
2022-08-16T04:04:58.513Z,42.70
2022-08-16T04:07:25.425Z,42.70
2022-08-16T04:09:52.749Z,42.96
2022-08-16T04:12:54.347Z,42.89
2022-08-16T04:15:08.732Z,43.29
2022-08-16T04:17:36.898Z,43.02
2022-08-16T04:20:23.766Z,43.21
2022-08-16T04:22:55.783Z,43.24
2022-08-16T04:25:23.310Z,43.23
2022-08-16T04:27:54.112Z,43.61
2022-08-16T04:30:32.338Z,43.42
2022-08-16T04:33:02.099Z,43.46
2022-08-16T04:35:34.346Z,43.45
2022-08-16T04:38:01.234Z,43.30
2022-08-16T04:40:38.486Z,43.30
2022-08-16T04:43:05.776Z,43.44
2022-08-16T04:45:35.690Z,43.39
2022-08-16T04:48:04.882Z,43.57
2022-08-16T04:50:31.566Z,43.57
2022-08-16T04:52:59.347Z,43.71
2022-08-16T04:55:37.827Z,43.61
2022-08-16T04:58:45.225Z,43.90
2022-08-16T05:00:54.442Z,43.91
2022-08-16T05:03:21.211Z,43.97
2022-08-16T05:05:59.077Z,43.86
2022-08-16T05:08:30.970Z,44.20
2022-08-16T05:11:05.419Z,44.09
2022-08-16T05:13:39.845Z,44.00
2022-08-16T05:16:11.723Z,44.30
2022-08-16T05:18:38.585Z,44.49
2022-08-16T05:21:09.731Z,44.39
2022-08-16T05:23:39.246Z,44.54
2022-08-16T05:26:05.891Z,44.50
2022-08-16T05:28:47.774Z,44.72
2022-08-16T05:31:22.716Z,44.80
2022-08-16T05:33:53.447Z,44.52
2022-08-16T05:36:22.144Z,44.96
2022-08-16T05:38:49.000Z,44.71
2022-08-16T05:41:16.968Z,44.76
2022-08-16T05:43:46.955Z,44.84
2022-08-16T05:46:29.952Z,44.94
2022-08-16T05:49:05.681Z,45.04
2022-08-16T05:51:38.383Z,45.08
2022-08-16T05:54:07.593Z,45.32
2022-08-16T05:56:37.271Z,45.28
2022-08-16T05:59:06.319Z,45.59
2022-08-16T06:01:38.074Z,45.87
2022-08-16T06:04:13.612Z,46.09
2022-08-16T06:09:42.649Z,46.57
2022-08-16T06:12:26.819Z,46.58
2022-08-16T06:15:01.707Z,46.59
2022-08-16T06:17:42.403Z,46.71
2022-08-16T06:20:24.212Z,46.84
2022-08-16T06:22:58.513Z,46.69
2022-08-16T06:25:36.420Z,46.68
2022-08-16T06:28:09.635Z,46.80
2022-08-16T06:30:44.012Z,47.04
2022-08-16T06:33:22.466Z,47.22
2022-08-16T06:35:55.208Z,46.95
2022-08-16T06:38:33.572Z,47.10
2022-08-16T06:41:06.504Z,47.46
2022-08-16T06:43:40.558Z,48.13
2022-08-16T06:46:10.578Z,47.76
2022-08-16T06:48:42.846Z,47.83
2022-08-16T06:51:09.768Z,48.27
2022-08-16T06:53:36.735Z,48.02
2022-08-16T06:56:14.228Z,48.48
2022-08-16T06:58:50.694Z,48.68
2022-08-16T07:01:20.222Z,48.91
2022-08-16T07:03:54.672Z,48.87
2022-08-16T07:06:26.569Z,48.60
2022-08-16T07:08:54.830Z,48.72
2022-08-16T07:11:48.181Z,48.79
2022-08-16T07:14:24.584Z,48.73
2022-08-16T07:16:53.937Z,48.98
2022-08-16T07:19:20.525Z,48.87
2022-08-16T07:21:59.407Z,48.94
2022-08-16T07:24:30.243Z,49.08
2022-08-16T07:26:58.508Z,48.96
2022-08-16T07:29:25.934Z,48.95
2022-08-16T07:31:53.882Z,49.09
2022-08-16T07:34:20.880Z,49.22
2022-08-16T07:37:10.819Z,49.47
2022-08-16T07:39:43.173Z,49.22
2022-08-16T07:42:20.121Z,49.22
2022-08-16T07:44:55.247Z,49.33
2022-08-16T07:47:24.596Z,49.29
2022-08-16T07:49:58.279Z,49.12
2022-08-16T07:52:25.230Z,49.19
2022-08-16T07:54:57.238Z,49.12
2022-08-16T07:57:24.659Z,49.36
2022-08-16T07:59:51.876Z,49.18
2022-08-16T08:02:20.361Z,49.35
2022-08-16T08:04:48.632Z,49.51
2022-08-16T08:07:16.328Z,49.76
2022-08-16T08:09:44.211Z,50.18
2022-08-16T08:12:32.554Z,50.31
2022-08-16T08:15:00.285Z,49.94
2022-08-16T08:17:42.684Z,49.90
2022-08-16T08:20:20.688Z,49.66
2022-08-16T08:22:53.794Z,49.71
2022-08-16T08:25:27.793Z,49.55
2022-08-16T08:28:15.702Z,49.68
2022-08-16T08:30:52.172Z,49.78
2022-08-16T08:33:27.716Z,49.85
2022-08-16T08:36:00.785Z,49.92
2022-08-16T08:38:44.035Z,49.91
2022-08-16T08:41:15.382Z,49.98
2022-08-16T08:43:46.902Z,49.91
2022-08-16T08:46:18.431Z,50.06
2022-08-16T08:49:02.204Z,49.96
2022-08-16T08:51:35.503Z,49.85
2022-08-16T08:54:07.077Z,49.79
2022-08-16T08:56:37.728Z,50.17
2022-08-16T08:59:20.029Z,50.02
2022-08-16T09:01:56.334Z,50.20
2022-08-16T09:04:27.005Z,50.52
2022-08-16T09:06:54.820Z,50.43
2022-08-16T09:09:24.258Z,50.58
2022-08-16T09:12:04.014Z,50.38
2022-08-16T09:14:34.416Z,50.32
2022-08-16T09:17:11.495Z,50.25
2022-08-16T09:19:44.362Z,50.17
2022-08-16T09:22:20.827Z,49.89
2022-08-16T09:24:52.718Z,49.97
2022-08-16T09:27:23.452Z,49.85
2022-08-16T09:29:59.997Z,49.71
2022-08-16T09:32:31.191Z,49.72
2022-08-16T09:34:59.828Z,49.92
2022-08-16T09:37:36.644Z,49.71
2022-08-16T09:40:17.925Z,49.76
2022-08-16T09:42:58.706Z,49.62
2022-08-16T09:45:29.141Z,49.91
2022-08-16T09:47:58.274Z,49.67
2022-08-16T09:50:36.812Z,49.91
2022-08-16T09:53:15.328Z,49.61
2022-08-16T09:55:46.451Z,48.93
2022-08-16T09:58:40.779Z,48.98
2022-08-16T10:01:02.922Z,49.05
2022-08-16T10:03:30.553Z,48.89
2022-08-16T10:05:57.589Z,48.77
2022-08-16T10:08:26.550Z,49.07
2022-08-16T10:11:12.621Z,49.02
2022-08-16T10:13:41.515Z,49.19
2022-08-16T10:19:00.398Z,49.14
2022-08-16T10:21:24.493Z,48.96
2022-08-16T10:23:56.135Z,49.03
2022-08-16T10:27:20.894Z,48.90
2022-08-16T10:29:13.622Z,48.82
2022-08-16T10:31:53.198Z,48.64
2022-08-16T10:34:31.983Z,48.84
2022-08-16T10:37:00.760Z,49.00
2022-08-16T10:39:40.608Z,49.55
2022-08-16T10:42:07.431Z,49.13
2022-08-16T10:44:34.930Z,49.17
2022-08-16T10:47:02.211Z,49.09
2022-08-16T10:49:29.320Z,48.84
2022-08-16T10:52:01.175Z,48.82
2022-08-16T10:54:31.020Z,48.70
2022-08-16T10:57:00.487Z,49.23
2022-08-16T10:59:38.970Z,49.09
2022-08-16T11:03:37.433Z,49.10
2022-08-16T11:05:09.428Z,49.15
2022-08-16T11:07:43.058Z,49.06
2022-08-16T11:13:21.074Z,48.74
2022-08-16T11:15:49.817Z,48.83
2022-08-16T11:18:48.774Z,49.03
2022-08-16T11:21:10.284Z,49.02
2022-08-16T11:23:58.797Z,49.02
2022-08-16T11:26:26.465Z,48.82
2022-08-16T11:31:45.694Z,48.47
2022-08-16T11:34:20.933Z,48.49
2022-08-16T11:36:59.497Z,48.40
2022-08-16T11:39:29.273Z,48.37
2022-08-16T11:41:56.637Z,47.95
2022-08-16T11:44:52.145Z,48.22
2022-08-16T11:47:11.008Z,48.03
2022-08-16T11:49:37.609Z,47.73
2022-08-16T11:52:05.141Z,47.65
2022-08-16T11:54:36.125Z,47.60
2022-08-16T11:57:04.202Z,47.65
2022-08-16T11:59:39.820Z,47.44
2022-08-16T12:02:31.083Z,47.20
2022-08-16T12:04:54.654Z,47.35
2022-08-16T12:07:23.804Z,47.04
2022-08-16T12:09:53.068Z,47.03
2022-08-16T12:12:20.667Z,46.86
2022-08-16T12:14:52.234Z,46.74
2022-08-16T12:17:22.989Z,46.80
2022-08-16T12:19:52.277Z,46.90
2022-08-16T12:22:20.151Z,46.57
2022-08-16T12:24:51.972Z,46.32
2022-08-16T12:27:20.508Z,45.95
2022-08-16T12:29:51.662Z,45.91
2022-08-16T12:32:35.878Z,45.95
2022-08-16T12:35:08.706Z,45.69
2022-08-16T12:37:35.766Z,45.53
2022-08-16T12:40:03.051Z,45.35
2022-08-16T12:42:35.325Z,45.40
2022-08-16T12:45:20.977Z,45.23
2022-08-16T12:48:32.948Z,45.11
2022-08-16T12:50:54.642Z,44.65
2022-08-16T12:53:23.739Z,44.63
2022-08-16T12:55:50.594Z,44.42
2022-08-16T12:58:49.828Z,44.22
2022-08-16T13:01:09.419Z,44.01
2022-08-16T13:03:40.527Z,44.09
2022-08-16T13:06:07.736Z,44.03
2022-08-16T13:08:34.358Z,43.81
2022-08-16T13:11:04.500Z,43.58
2022-08-16T13:13:35.420Z,43.85
2022-08-16T13:16:15.201Z,43.55
2022-08-16T13:18:46.644Z,43.56
2022-08-16T13:21:23.823Z,43.25
2022-08-16T13:23:51.285Z,43.48
2022-08-16T13:26:22.024Z,43.08
2022-08-16T13:28:48.529Z,43.11
2022-08-16T13:31:15.973Z,43.06
2022-08-16T13:33:43.807Z,43.79
2022-08-16T13:36:21.248Z,43.65
2022-08-16T13:38:59.962Z,43.67
2022-08-16T13:41:30.331Z,43.54
2022-08-16T13:43:59.653Z,43.92
2022-08-16T13:46:28.849Z,43.80
2022-08-16T13:48:57.157Z,44.01
2022-08-16T13:51:24.434Z,43.71
2022-08-16T13:54:02.889Z,43.93
2022-08-16T13:56:37.093Z,43.70
2022-08-16T13:59:06.349Z,43.52
2022-08-16T14:01:43.825Z,43.25
2022-08-16T14:04:18.981Z,43.16
2022-08-16T14:06:52.928Z,43.15
2022-08-16T14:09:20.208Z,42.96
2022-08-16T14:11:46.774Z,43.13
2022-08-16T14:14:16.623Z,42.60
2022-08-16T14:16:44.631Z,42.73
2022-08-16T14:19:13.810Z,42.94
2022-08-16T14:21:55.995Z,42.54
2022-08-16T14:24:30.429Z,42.51
2022-08-16T14:26:57.802Z,42.44
2022-08-16T14:29:24.353Z,42.46
2022-08-16T14:32:05.477Z,42.70
2022-08-16T14:34:32.248Z,42.47
2022-08-16T14:36:59.551Z,42.72
2022-08-16T14:39:26.542Z,42.53
2022-08-16T14:41:53.726Z,42.45
2022-08-16T14:44:23.157Z,42.38
2022-08-16T14:46:49.824Z,42.50
2022-08-16T14:49:19.394Z,42.39
2022-08-16T14:51:46.345Z,42.11
2022-08-16T14:54:15.070Z,42.28
2022-08-16T14:56:43.034Z,42.19
2022-08-16T14:59:13.690Z,42.59
2022-08-16T15:01:58.042Z,42.44
2022-08-16T15:04:39.169Z,42.81
2022-08-16T15:07:06.744Z,43.00
2022-08-16T15:09:43.936Z,43.14
2022-08-16T15:12:30.573Z,42.77
2022-08-16T15:14:58.043Z,42.96
2022-08-16T15:17:27.660Z,42.47
2022-08-16T15:20:01.309Z,42.36
2022-08-16T15:22:33.629Z,42.37
2022-08-16T15:25:05.099Z,42.15
2022-08-16T15:27:36.004Z,42.04
2022-08-16T15:30:44.838Z,42.03
2022-08-16T15:33:00.539Z,41.52
2022-08-16T15:35:27.180Z,41.21
2022-08-16T15:37:56.754Z,40.83
2022-08-16T15:40:32.389Z,40.67
2022-08-16T15:43:04.745Z,40.32
2022-08-16T15:45:55.605Z,40.07
2022-08-16T15:48:28.586Z,39.68
2022-08-16T15:50:59.056Z,39.64
2022-08-16T15:53:30.783Z,39.50
2022-08-16T15:55:58.924Z,40.02
2022-08-16T15:58:35.201Z,39.76
2022-08-16T16:01:07.008Z,39.56
2022-08-16T16:03:34.489Z,39.73
2022-08-16T16:06:02.756Z,39.76
2022-08-16T16:08:31.004Z,39.85
2022-08-16T16:11:01.245Z,39.60
2022-08-16T16:13:30.697Z,39.58
2022-08-16T16:15:59.468Z,39.54
2022-08-16T16:18:27.049Z,39.42
2022-08-16T16:23:54.765Z,39.60
2022-08-16T16:26:24.802Z,39.72
2022-08-16T16:29:08.640Z,39.50
2022-08-16T16:31:41.864Z,39.63
2022-08-16T16:34:10.993Z,39.59
2022-08-16T16:36:39.915Z,39.50
2022-08-16T16:39:10.904Z,39.32
2022-08-16T16:41:40.483Z,39.43
2022-08-16T16:44:08.855Z,39.27
2022-08-16T16:46:41.935Z,39.66
2022-08-16T16:49:12.407Z,39.71
2022-08-16T16:51:44.879Z,39.46
2022-08-16T16:54:22.301Z,39.73
2022-08-16T16:56:55.329Z,39.60
2022-08-16T16:59:25.502Z,39.71
2022-08-16T17:02:00.145Z,39.94
2022-08-16T17:04:41.400Z,39.86
2022-08-16T17:07:11.145Z,39.77
2022-08-16T17:09:40.904Z,40.07
2022-08-16T17:12:14.592Z,40.35
2022-08-16T17:14:53.446Z,40.29
2022-08-16T17:17:20.019Z,40.31
2022-08-16T17:19:47.266Z,40.71
2022-08-16T17:22:23.519Z,40.66
2022-08-16T17:24:52.747Z,40.85
2022-08-16T17:27:32.740Z,40.67
2022-08-16T17:30:22.497Z,41.15
2022-08-16T17:33:01.535Z,41.44
2022-08-16T17:35:55.551Z,41.31
2022-08-16T17:38:38.862Z,41.44
2022-08-16T17:41:11.023Z,41.72
2022-08-16T17:43:44.289Z,41.67
2022-08-16T17:46:50.138Z,41.80
2022-08-16T17:48:59.766Z,42.11
2022-08-16T17:51:28.681Z,42.36
2022-08-16T17:53:55.429Z,42.22
2022-08-16T17:56:22.104Z,42.62
2022-08-16T17:58:48.761Z,42.63
2022-08-16T18:01:15.521Z,42.51
2022-08-16T18:04:07.035Z,43.05
2022-08-16T18:06:29.042Z,43.23
2022-08-16T18:09:02.542Z,43.24
2022-08-16T18:11:33.717Z,43.35
2022-08-16T18:14:00.536Z,43.55
2022-08-16T18:16:27.199Z,43.45
2022-08-16T18:18:53.706Z,43.29
2022-08-16T18:21:39.082Z,43.38
2022-08-16T18:24:05.856Z,43.72
2022-08-16T18:26:32.453Z,43.44
2022-08-16T18:28:58.938Z,43.66
2022-08-16T18:31:25.562Z,43.54
2022-08-16T18:33:54.806Z,43.48
2022-08-16T18:36:23.498Z,43.54
2022-08-16T18:41:36.801Z,43.70
2022-08-16T18:44:24.744Z,43.69
2022-08-16T18:46:51.969Z,43.63
2022-08-16T18:49:19.726Z,43.59
2022-08-16T18:51:46.505Z,43.66
2022-08-16T18:54:17.958Z,43.73
2022-08-16T18:56:53.812Z,43.77
2022-08-16T18:59:23.979Z,43.75
2022-08-16T19:01:51.160Z,43.76
2022-08-16T19:04:56.175Z,43.80
2022-08-16T19:07:04.455Z,43.57
2022-08-16T19:09:31.007Z,43.96
2022-08-16T19:11:57.548Z,43.91
2022-08-16T19:14:29.947Z,44.06
2022-08-16T19:16:56.489Z,44.08
2022-08-16T19:19:23.396Z,43.95
2022-08-16T19:21:49.947Z,44.24
2022-08-16T19:24:18.138Z,44.15
2022-08-16T19:26:45.407Z,44.13
2022-08-16T19:29:12.216Z,44.36
2022-08-16T19:31:40.348Z,44.14
2022-08-16T19:34:08.183Z,44.05
2022-08-16T19:36:37.985Z,44.02
2022-08-16T19:39:06.327Z,44.17
2022-08-16T19:41:40.625Z,44.17
2022-08-16T19:44:08.024Z,43.97
2022-08-16T19:46:35.524Z,44.29
2022-08-16T19:49:03.078Z,44.27
2022-08-16T19:51:30.091Z,44.26
2022-08-16T19:53:56.618Z,43.95
2022-08-16T19:56:25.749Z,44.02
2022-08-16T20:01:37.395Z,44.16
2022-08-16T20:04:08.277Z,44.16
2022-08-16T20:06:38.416Z,44.37
2022-08-16T20:09:06.526Z,44.47
2022-08-16T20:14:26.786Z,44.68
2022-08-16T20:16:58.381Z,44.48
2022-08-16T20:19:36.361Z,44.40
2022-08-16T20:22:42.110Z,44.60
2022-08-16T20:25:11.232Z,44.63
2022-08-16T20:27:38.679Z,44.50
2022-08-16T20:30:06.369Z,44.30
2022-08-16T20:32:35.821Z,44.58
2022-08-16T20:35:04.874Z,44.40
2022-08-16T20:37:33.067Z,44.46
2022-08-16T20:40:27.992Z,44.24
2022-08-16T20:43:02.235Z,44.12
2022-08-16T20:45:29.322Z,44.15
2022-08-16T20:47:56.501Z,44.14
2022-08-16T20:50:23.261Z,44.10
2022-08-16T20:52:50.439Z,44.05
2022-08-16T20:55:17.518Z,44.19
2022-08-16T20:57:44.063Z,44.11
2022-08-16T21:00:11.733Z,44.11
2022-08-16T21:02:40.746Z,43.96
2022-08-16T21:05:09.321Z,44.06
2022-08-16T21:07:36.980Z,43.98
2022-08-16T21:10:04.911Z,43.68
2022-08-16T21:12:34.695Z,43.85
2022-08-16T21:15:08.267Z,43.80
2022-08-16T21:17:34.782Z,43.76
2022-08-16T21:20:01.283Z,43.90
2022-08-16T21:22:27.867Z,43.84
2022-08-16T21:24:55.863Z,43.81
2022-08-16T21:27:22.532Z,43.75
2022-08-16T21:29:52.257Z,43.65
2022-08-16T21:32:35.259Z,43.59
2022-08-16T21:35:12.617Z,43.53
2022-08-16T21:37:39.530Z,43.42
2022-08-16T21:40:08.974Z,43.60
2022-08-16T21:42:37.063Z,43.78
2022-08-16T21:45:03.977Z,43.46
2022-08-16T21:47:30.491Z,43.55
2022-08-16T21:49:56.999Z,43.57
2022-08-16T21:52:26.808Z,43.59
2022-08-16T21:54:56.135Z,43.39
2022-08-16T21:57:23.241Z,43.58
2022-08-16T21:59:51.987Z,43.66
2022-08-16T22:02:21.039Z,43.39
2022-08-16T22:04:48.010Z,43.64
2022-08-16T22:07:16.829Z,43.65
2022-08-16T22:09:44.660Z,43.63
2022-08-16T22:12:26.220Z,43.71
2022-08-16T22:14:53.088Z,43.51
2022-08-16T22:17:19.891Z,43.66
2022-08-16T22:19:46.535Z,43.63
2022-08-16T22:22:13.158Z,43.44
2022-08-16T22:24:40.191Z,43.78
2022-08-16T22:27:06.705Z,43.79
2022-08-16T22:29:33.290Z,43.48
2022-08-16T22:32:02.513Z,43.48
2022-08-16T22:34:30.338Z,43.52
2022-08-16T22:36:57.500Z,43.58
2022-08-16T22:39:24.305Z,43.74
2022-08-16T22:41:51.009Z,43.82
2022-08-16T22:44:18.505Z,43.42
2022-08-16T22:46:45.056Z,43.65
2022-08-16T22:49:12.434Z,43.50
2022-08-16T22:51:40.298Z,43.56
2022-08-16T22:54:41.422Z,43.45
2022-08-16T22:56:53.681Z,43.39
2022-08-16T22:59:20.208Z,43.80
2022-08-16T23:05:39.909Z,43.45
2022-08-16T23:08:08.746Z,43.72
2022-08-16T23:10:35.833Z,43.67
2022-08-16T23:13:05.746Z,43.83
2022-08-16T23:15:40.160Z,43.42
2022-08-16T23:29:26.019Z,43.65
2022-08-16T23:31:55.765Z,43.72
2022-08-16T23:34:22.651Z,43.57
2022-08-16T23:36:49.145Z,43.85
2022-08-16T23:39:15.873Z,43.74
2022-08-16T23:41:44.516Z,43.71
2022-08-16T23:44:55.699Z,43.93
2022-08-16T23:46:57.996Z,43.61
2022-08-16T23:49:58.705Z,43.73
2022-08-16T23:52:11.521Z,43.74
2022-08-16T23:54:38.081Z,43.63
2022-08-16T23:57:05.083Z,43.72
2022-08-16T23:59:48.694Z,43.49
